Chrisanthi — SX7108 — position and weather

sailwx.info

Track history (hours):
 
Tides and Currents Weather Stations Pressure Air Temp Water Temp Dewpoint Dewpoint Depression Visibility Wind Speed Wind Dir Waves Ship Positions

Chrisanthi

Last reported at 2015-Apr-01 10:13 UTC. Time now 2015-Apr-02 01:29 UTC.
Position N 37°11' E 025°48'.

Length 56 m; draft 3.9 m.

Type: Tanker. MMSI: 237009100.

Date/timePositionNaut miles runAvg speedWind from/ knotsBaromVisibWave heightAir tempDewpointWater temp
2015-Apr-01 10:13N 37°11' E 025°48'1710.3
2015-Apr-01 08:33N 37°15' E 025°27'1010.2
2015-Apr-01 07:33N 37°17' E 025°15'1010.2
2015-Apr-01 06:33N 37°19' E 025°02'1110.3
2015-Apr-01 05:31N 37°22' E 024°49'5210.0
2015-Apr-01 00:18N 37°38' E 023°47'810.2
2015-Mar-31 23:33N 37°44' E 023°40'9 9.4
2015-Mar-31 22:33N 37°50' E 023°31'7 0.5
2015-Mar-31 09:17N 37°52' E 023°22'710.3
2015-Mar-31 08:33N 37°50' E 023°31'9 8.5
2015-Mar-31 07:33N 37°47' E 023°41'59 9.8
2015-Mar-31 01:33N 37°22' E 024°48'10 9.7
2015-Mar-31 00:33N 37°17' E 024°59'9 9.4
2015-Mar-30 23:33N 37°14' E 025°10'9 9.1
2015-Mar-30 22:33N 37°09' E 025°20'3 3.2
2015-Mar-30 21:33N 37°06' E 025°22'0 0.4
2015-Mar-30 20:33N 37°06' E 025°22'0 0.4
2015-Mar-30 19:33N 37°06' E 025°22'5 4.9
2015-Mar-30 18:33N 37°10' E 025°18'11 1.1
2015-Mar-30 09:05N 37°05' E 025°07'33 3.0
2015-Mar-29 22:12N 36°33' E 025°19'710.1
2015-Mar-29 21:33N 36°27' E 025°22'5 4.9
2015-Mar-29 20:33N 36°23' E 025°26'0 0.0
2015-Mar-29 19:32N 36°23' E 025°26'0 0.0
2015-Mar-29 18:32N 36°23' E 025°26'0 0.0
2015-Mar-29 17:32N 36°23' E 025°26'0 0.0
2015-Mar-29 16:32N 36°23' E 025°26'2 2.0
2015-Mar-29 15:32N 36°24' E 025°23'0 0.0
2015-Mar-29 14:33N 36°24' E 025°23'0 0.1
2015-Mar-29 13:28N 36°24' E 025°23'0 0.0
2015-Mar-29 12:32N 36°24' E 025°23'0 0.0
2015-Mar-29 11:32N 36°24' E 025°23'0 0.0
2015-Mar-29 10:33N 36°24' E 025°23'4 4.3
2015-Mar-29 09:32N 36°19' E 025°22'1010.3
2015-Mar-29 08:32N 36°19' E 025°35'9 9.1
2015-Mar-29 07:32N 36°20' E 025°46'0 0.1
2015-Mar-29 06:32N 36°21' E 025°46'0 0.0
2015-Mar-29 05:33N 36°21' E 025°46'4 4.3
2015-Mar-29 04:33N 36°25' E 025°45'  
2015-Mar-24 12:27N 37°10' E 025°48'1910.1
2015-Mar-24 10:33N 37°15' E 025°24'1010.1
2015-Mar-24 09:33N 37°17' E 025°12'1110.1
2015-Mar-24 08:25N 37°20' E 024°58'59 9.8
2015-Mar-24 02:23N 37°39' E 023°47'8 9.5
2015-Mar-24 01:33N 37°44' E 023°40'10 9.5
2015-Mar-24 00:32N 37°50' E 023°30'0 0.0
2015-Mar-23 08:17N 37°50' E 023°30'710.0
2015-Mar-23 07:33N 37°50' E 023°39'1310.0
2015-Mar-23 06:15N 37°40' E 023°49'5010.4
2015-Mar-23 01:29N 37°18' E 024°46'1010.5
2015-Mar-23 00:33N 37°13' E 024°55'10 9.9
2015-Mar-22 23:33N 37°07' E 025°05'6 0.7
2015-Mar-22 16:06N 37°09' E 025°12'5 9.6
2015-Mar-22 15:33N 37°10' E 025°18'5 4.9
2015-Mar-22 14:33N 37°06' E 025°22'0 0.0
2015-Mar-22 13:33N 37°06' E 025°22'0 0.0
2015-Mar-22 12:33N 37°06' E 025°22'0 0.0
2015-Mar-22 11:33N 37°06' E 025°22'5 4.8
2015-Mar-22 10:33N 37°03' E 025°19'  
Track history (hours):
 
Tides and Currents Weather Stations Pressure Air Temp Water Temp Dewpoint Dewpoint Depression Visibility Wind Speed Wind Dir Waves Ship Positions

Chrisanthi

Last reported at 2015-Apr-01 10:13 UTC. Time now 2015-Apr-02 01:29 UTC.
Position N 37°11' E 025°48'.

Length 56 m; draft 3.9 m.

Type: Tanker. MMSI: 237009100.

Date/timePositionNaut miles runAvg speedWind from/ knotsBaromVisibWave heightAir tempDewpointWater temp
2015-Apr-01 10:13N 37°11' E 025°48'1710.3
2015-Apr-01 08:33N 37°15' E 025°27'1010.2
2015-Apr-01 07:33N 37°17' E 025°15'1010.2
2015-Apr-01 06:33N 37°19' E 025°02'1110.3
2015-Apr-01 05:31N 37°22' E 024°49'5210.0
2015-Apr-01 00:18N 37°38' E 023°47'810.2
2015-Mar-31 23:33N 37°44' E 023°40'9 9.4
2015-Mar-31 22:33N 37°50' E 023°31'7 0.5
2015-Mar-31 09:17N 37°52' E 023°22'710.3
2015-Mar-31 08:33N 37°50' E 023°31'9 8.5
2015-Mar-31 07:33N 37°47' E 023°41'59 9.8
2015-Mar-31 01:33N 37°22' E 024°48'10 9.7
2015-Mar-31 00:33N 37°17' E 024°59'9 9.4
2015-Mar-30 23:33N 37°14' E 025°10'9 9.1
2015-Mar-30 22:33N 37°09' E 025°20'3 3.2
2015-Mar-30 21:33N 37°06' E 025°22'0 0.4
2015-Mar-30 20:33N 37°06' E 025°22'0 0.4
2015-Mar-30 19:33N 37°06' E 025°22'5 4.9
2015-Mar-30 18:33N 37°10' E 025°18'11 1.1
2015-Mar-30 09:05N 37°05' E 025°07'33 3.0
2015-Mar-29 22:12N 36°33' E 025°19'710.1
2015-Mar-29 21:33N 36°27' E 025°22'5 4.9
2015-Mar-29 20:33N 36°23' E 025°26'0 0.0
2015-Mar-29 19:32N 36°23' E 025°26'0 0.0
2015-Mar-29 18:32N 36°23' E 025°26'0 0.0
2015-Mar-29 17:32N 36°23' E 025°26'0 0.0
2015-Mar-29 16:32N 36°23' E 025°26'2 2.0
2015-Mar-29 15:32N 36°24' E 025°23'0 0.0
2015-Mar-29 14:33N 36°24' E 025°23'0 0.1
2015-Mar-29 13:28N 36°24' E 025°23'0 0.0
2015-Mar-29 12:32N 36°24' E 025°23'0 0.0
2015-Mar-29 11:32N 36°24' E 025°23'0 0.0
2015-Mar-29 10:33N 36°24' E 025°23'4 4.3
2015-Mar-29 09:32N 36°19' E 025°22'1010.3
2015-Mar-29 08:32N 36°19' E 025°35'9 9.1
2015-Mar-29 07:32N 36°20' E 025°46'0 0.1
2015-Mar-29 06:32N 36°21' E 025°46'0 0.0
2015-Mar-29 05:33N 36°21' E 025°46'4 4.3
2015-Mar-29 04:33N 36°25' E 025°45'  
2015-Mar-24 12:27N 37°10' E 025°48'1910.1
2015-Mar-24 10:33N 37°15' E 025°24'1010.1
2015-Mar-24 09:33N 37°17' E 025°12'1110.1
2015-Mar-24 08:25N 37°20' E 024°58'59 9.8
2015-Mar-24 02:23N 37°39' E 023°47'8 9.5
2015-Mar-24 01:33N 37°44' E 023°40'10 9.5
2015-Mar-24 00:32N 37°50' E 023°30'0 0.0
2015-Mar-23 08:17N 37°50' E 023°30'710.0
2015-Mar-23 07:33N 37°50' E 023°39'1310.0
2015-Mar-23 06:15N 37°40' E 023°49'5010.4
2015-Mar-23 01:29N 37°18' E 024°46'1010.5
2015-Mar-23 00:33N 37°13' E 024°55'10 9.9
2015-Mar-22 23:33N 37°07' E 025°05'6 0.7
2015-Mar-22 16:06N 37°09' E 025°12'5 9.6
2015-Mar-22 15:33N 37°10' E 025°18'5 4.9
2015-Mar-22 14:33N 37°06' E 025°22'0 0.0
2015-Mar-22 13:33N 37°06' E 025°22'0 0.0
2015-Mar-22 12:33N 37°06' E 025°22'0 0.0
2015-Mar-22 11:33N 37°06' E 025°22'5 4.8
2015-Mar-22 10:33N 37°03' E 025°19'  

Dump ship's entire track history